createdAt,value
2023-01-05T00:01:54.298Z,8.80
2023-01-05T00:04:20.852Z,8.73
2023-01-05T00:06:47.355Z,8.27
2023-01-05T00:09:15.859Z,8.65
2023-01-05T00:12:17.693Z,8.00
2023-01-05T00:15:02.758Z,8.30
2023-01-05T00:17:47.674Z,7.95
2023-01-05T00:20:34.447Z,7.75
2023-01-05T00:23:00.951Z,7.55
2023-01-05T00:25:29.237Z,6.88
2023-01-05T00:27:57.999Z,6.95
2023-01-05T00:30:26.711Z,8.23
2023-01-05T00:32:53.249Z,7.50
2023-01-05T00:35:19.778Z,7.95
2023-01-05T00:37:46.273Z,7.55
2023-01-05T00:40:14.619Z,7.88
2023-01-05T00:42:41.124Z,7.57
2023-01-05T00:45:08.639Z,7.07
2023-01-05T00:47:35.126Z,7.18
2023-01-05T00:50:01.629Z,7.00
2023-01-05T00:52:28.143Z,7.57
2023-01-05T00:54:54.601Z,7.50
2023-01-05T00:57:21.046Z,6.68
2023-01-05T00:59:47.511Z,6.63
2023-01-05T01:02:14.129Z,6.90
2023-01-05T01:04:40.621Z,6.53
2023-01-05T01:07:07.171Z,6.88
2023-01-05T01:09:33.850Z,6.70
2023-01-05T01:12:00.396Z,6.18
2023-01-05T01:14:27.077Z,6.07
2023-01-05T01:16:53.635Z,6.38
2023-01-05T01:19:21.786Z,6.38
2023-01-05T01:21:48.423Z,5.80
2023-01-05T01:24:19.926Z,5.93
2023-01-05T01:26:46.519Z,5.80
2023-01-05T01:29:12.987Z,5.88
2023-01-05T01:31:39.601Z,6.32
2023-01-05T01:34:06.097Z,6.00
2023-01-05T01:36:32.571Z,5.32
2023-01-05T01:38:59.025Z,6.68
2023-01-05T01:41:25.495Z,5.20
2023-01-05T01:43:53.284Z,5.43
2023-01-05T01:46:20.192Z,5.70
2023-01-05T01:48:54.538Z,5.10
2023-01-05T01:51:24.607Z,5.47
2023-01-05T01:53:52.718Z,5.50
2023-01-05T01:56:20.784Z,5.25
2023-01-05T01:58:47.229Z,5.53
2023-01-05T02:01:13.790Z,5.32
2023-01-05T02:03:40.703Z,5.55
2023-01-05T02:06:07.227Z,5.40
2023-01-05T02:08:33.935Z,5.22
2023-01-05T02:11:37.522Z,4.60
2023-01-05T02:14:45.705Z,4.95
2023-01-05T02:17:40.224Z,5.00
2023-01-05T02:20:25.652Z,4.97
2023-01-05T02:23:18.851Z,4.80
2023-01-05T02:26:10.209Z,4.78
2023-01-05T02:29:03.887Z,4.35
2023-01-05T02:31:40.992Z,4.40
2023-01-05T02:34:14.514Z,4.70
2023-01-05T02:37:08.296Z,4.25
2023-01-05T02:39:59.776Z,4.60
2023-01-05T02:42:27.722Z,4.35
2023-01-05T02:44:54.203Z,4.18
2023-01-05T02:47:27.651Z,4.80
2023-01-05T02:50:01.655Z,4.35
2023-01-05T02:52:28.128Z,3.95
2023-01-05T02:54:59.337Z,4.13
2023-01-05T02:57:50.867Z,4.15
2023-01-05T03:00:32.717Z,3.75
2023-01-05T03:03:06.595Z,4.20
2023-01-05T03:05:40.296Z,4.00
2023-01-05T03:08:25.019Z,4.20
2023-01-05T03:11:22.891Z,4.05
2023-01-05T03:13:54.226Z,4.05
2023-01-05T03:16:39.853Z,3.70
2023-01-05T03:19:32.301Z,3.95
2023-01-05T03:22:20.607Z,3.53
2023-01-05T03:25:05.695Z,3.40
2023-01-05T03:27:50.776Z,3.80
2023-01-05T03:30:35.822Z,3.60
2023-01-05T03:33:28.502Z,3.67
2023-01-05T03:35:56.613Z,3.10
2023-01-05T03:38:31.843Z,3.35
2023-01-05T03:40:59.504Z,3.20
2023-01-05T03:43:25.994Z,3.88
2023-01-05T03:45:56.571Z,3.40
2023-01-05T03:48:23.590Z,3.30
2023-01-05T03:50:50.055Z,3.30
2023-01-05T03:53:16.519Z,3.25
2023-01-05T03:55:42.975Z,3.05
2023-01-05T03:58:09.458Z,3.10
2023-01-05T04:00:35.946Z,3.00
2023-01-05T04:03:02.502Z,2.90
2023-01-05T04:05:29.027Z,2.60
2023-01-05T04:07:55.481Z,3.55
2023-01-05T04:10:22.148Z,3.08
2023-01-05T04:12:49.296Z,3.08
2023-01-05T04:15:15.776Z,2.78
2023-01-05T04:17:42.517Z,2.50
2023-01-05T04:20:09.482Z,2.95
2023-01-05T04:22:36.220Z,2.80
2023-01-05T04:25:02.680Z,2.85
2023-01-05T04:27:29.129Z,2.72
2023-01-05T04:29:55.596Z,2.60
2023-01-05T04:32:22.088Z,3.13
2023-01-05T04:34:48.531Z,2.83
2023-01-05T04:37:15.024Z,3.10
2023-01-05T04:39:41.514Z,2.55
2023-01-05T04:42:07.976Z,2.75
2023-01-05T04:44:34.657Z,2.28
2023-01-05T04:47:01.209Z,2.45
2023-01-05T04:49:27.911Z,2.33
2023-01-05T04:51:54.385Z,2.40
2023-01-05T04:54:20.886Z,2.58
2023-01-05T04:56:47.594Z,2.55
2023-01-05T04:59:14.046Z,2.33
2023-01-05T05:01:40.560Z,2.67
2023-01-05T05:04:07.083Z,2.30
2023-01-05T05:06:33.557Z,2.63
2023-01-05T05:09:00.028Z,2.45
2023-01-05T05:11:26.489Z,2.35
2023-01-05T05:13:52.946Z,2.55
2023-01-05T05:16:19.426Z,2.75
2023-01-05T05:18:45.956Z,2.33
2023-01-05T05:21:12.451Z,2.30
2023-01-05T05:23:38.904Z,2.20
2023-01-05T05:26:05.445Z,2.40
2023-01-05T05:28:31.911Z,2.53
2023-01-05T05:30:58.810Z,2.45
2023-01-05T05:33:25.399Z,2.30
2023-01-05T05:35:51.884Z,2.42
2023-01-05T05:38:18.620Z,2.15
2023-01-05T05:40:45.106Z,2.22
2023-01-05T05:43:11.550Z,2.63
2023-01-05T05:45:38.023Z,2.40
2023-01-05T05:48:05.616Z,2.25
2023-01-05T05:50:32.693Z,2.05
2023-01-05T05:52:59.791Z,2.00
2023-01-05T05:55:26.240Z,2.03
2023-01-05T05:57:52.700Z,2.15
2023-01-05T06:00:19.211Z,2.10
2023-01-05T06:02:45.820Z,2.20
2023-01-05T06:05:12.388Z,2.10
2023-01-05T06:07:38.839Z,2.20
2023-01-05T06:10:05.732Z,2.28
2023-01-05T06:12:32.861Z,2.45
2023-01-05T06:14:59.462Z,2.30
2023-01-05T06:17:25.919Z,1.90
2023-01-05T06:19:52.390Z,2.15
2023-01-05T06:22:18.921Z,1.85
2023-01-05T06:24:45.389Z,2.40
2023-01-05T06:27:12.257Z,2.20
2023-01-05T06:29:38.777Z,1.80
2023-01-05T06:32:05.476Z,2.10
2023-01-05T06:34:32.175Z,2.05
2023-01-05T06:37:02.204Z,2.08
2023-01-05T06:39:29.080Z,2.00
2023-01-05T06:41:55.531Z,1.92
2023-01-05T06:44:22.010Z,2.30
2023-01-05T06:46:48.480Z,2.03
2023-01-05T06:49:15.288Z,1.75
2023-01-05T06:51:42.036Z,1.90
2023-01-05T06:54:08.536Z,1.80
2023-01-05T06:56:34.993Z,2.15
2023-01-05T06:59:01.497Z,2.30
2023-01-05T07:01:28.012Z,2.25
2023-01-05T07:03:54.619Z,2.03
2023-01-05T07:06:21.374Z,2.50
2023-01-05T07:08:47.829Z,2.30
2023-01-05T07:11:14.356Z,2.42
2023-01-05T07:13:40.876Z,2.30
2023-01-05T07:16:08.618Z,2.70
2023-01-05T07:18:35.213Z,2.33
2023-01-05T07:21:01.699Z,2.08
2023-01-05T07:23:29.908Z,2.75
2023-01-05T07:25:56.357Z,3.10
2023-01-05T07:28:22.846Z,2.60
2023-01-05T07:30:52.507Z,2.65
2023-01-05T07:33:19.271Z,2.45
2023-01-05T07:35:45.744Z,2.88
2023-01-05T07:38:12.214Z,2.58
2023-01-05T07:40:38.919Z,2.42
2023-01-05T07:43:05.385Z,2.92
2023-01-05T07:45:31.887Z,2.58
2023-01-05T07:47:59.996Z,2.55
2023-01-05T07:50:26.836Z,2.60
2023-01-05T07:52:53.416Z,2.40
2023-01-05T07:55:19.928Z,2.70
2023-01-05T07:57:47.452Z,2.63
2023-01-05T08:00:14.969Z,2.42
2023-01-05T08:02:42.167Z,2.47
2023-01-05T08:05:08.976Z,2.40
2023-01-05T08:07:35.994Z,2.78
2023-01-05T08:10:21.397Z,2.60
2023-01-05T08:13:06.252Z,3.00
2023-01-05T08:15:32.734Z,2.58
2023-01-05T08:17:59.392Z,2.70
2023-01-05T08:20:25.854Z,2.13
2023-01-05T08:22:52.776Z,2.60
2023-01-05T08:25:19.516Z,2.38
2023-01-05T08:27:46.420Z,2.33
2023-01-05T08:30:13.196Z,2.53
2023-01-05T08:32:40.312Z,2.38
2023-01-05T08:35:07.092Z,2.83
2023-01-05T08:37:33.541Z,2.00
2023-01-05T08:40:00.013Z,2.80
2023-01-05T08:42:29.131Z,2.55
2023-01-05T08:44:55.591Z,2.35
2023-01-05T08:47:27.816Z,2.58
2023-01-05T08:49:54.768Z,2.33
2023-01-05T08:52:23.107Z,2.10
2023-01-05T08:54:49.784Z,2.17
2023-01-05T08:57:16.254Z,2.28
2023-01-05T08:59:42.753Z,1.95
2023-01-05T09:02:12.470Z,2.45
2023-01-05T09:04:39.079Z,2.45
2023-01-05T09:07:05.614Z,2.13
2023-01-05T09:09:32.129Z,2.30
2023-01-05T09:11:58.592Z,1.98
2023-01-05T09:14:25.055Z,2.38
2023-01-05T09:17:08.036Z,2.15
2023-01-05T09:19:34.929Z,2.05
2023-01-05T09:22:01.395Z,2.20
2023-01-05T09:24:27.876Z,2.50
2023-01-05T09:26:54.460Z,2.67
2023-01-05T09:29:21.002Z,2.75
2023-01-05T09:31:47.499Z,2.85
2023-01-05T09:34:13.998Z,2.38
2023-01-05T09:36:40.506Z,2.50
2023-01-05T09:39:07.141Z,2.03
2023-01-05T09:41:45.005Z,3.00
2023-01-05T09:44:30.410Z,2.45
2023-01-05T09:47:13.944Z,2.55
2023-01-05T09:49:40.422Z,3.27
2023-01-05T09:52:09.375Z,2.95
2023-01-05T09:54:36.745Z,3.30
2023-01-05T09:57:09.475Z,3.20
2023-01-05T09:59:41.981Z,2.95
2023-01-05T10:02:39.351Z,3.00
2023-01-05T10:05:06.295Z,3.47
2023-01-05T10:07:43.212Z,3.08
2023-01-05T10:10:45.411Z,3.28
2023-01-05T10:13:21.930Z,2.88
2023-01-05T10:15:51.236Z,3.00
2023-01-05T10:18:19.201Z,3.08
2023-01-05T10:21:10.725Z,2.58
2023-01-05T10:23:56.060Z,2.75
2023-01-05T10:26:51.045Z,2.83
2023-01-05T10:29:20.685Z,2.50
2023-01-05T10:32:03.510Z,2.20
2023-01-05T10:34:49.605Z,2.75
2023-01-05T10:37:35.194Z,3.40
2023-01-05T10:40:03.807Z,2.97
2023-01-05T10:42:40.902Z,2.72
2023-01-05T10:45:12.679Z,2.97
2023-01-05T10:47:39.240Z,2.70
2023-01-05T10:50:18.316Z,3.00
2023-01-05T10:52:45.711Z,3.00
2023-01-05T10:55:15.216Z,3.00
2023-01-05T10:57:42.204Z,3.05
2023-01-05T11:00:16.635Z,2.63
2023-01-05T11:02:47.465Z,2.90
2023-01-05T11:05:39.618Z,2.78
2023-01-05T11:08:07.431Z,2.17
2023-01-05T11:11:00.595Z,2.90
2023-01-05T11:13:36.083Z,2.70
2023-01-05T11:16:12.847Z,2.50
2023-01-05T11:18:47.108Z,2.75
2023-01-05T11:21:19.335Z,3.15
2023-01-05T11:23:53.118Z,3.45
2023-01-05T11:26:19.466Z,3.00
2023-01-05T11:29:12.399Z,3.25
2023-01-05T11:31:49.517Z,3.83
2023-01-05T11:34:38.242Z,4.15
2023-01-05T11:37:08.329Z,3.47
2023-01-05T11:39:47.170Z,3.75
2023-01-05T11:42:27.602Z,3.55
2023-01-05T11:44:57.018Z,3.97
2023-01-05T11:47:27.819Z,4.20
2023-01-05T11:50:21.694Z,4.22
2023-01-05T11:52:53.918Z,5.43
2023-01-05T11:55:20.258Z,6.50
2023-01-05T11:57:47.574Z,4.50
2023-01-05T12:00:33.592Z,5.25
2023-01-05T12:03:28.280Z,4.55
2023-01-05T12:08:47.610Z,4.50
2023-01-05T12:11:16.831Z,4.68
2023-01-05T12:14:01.569Z,4.25
2023-01-05T12:16:43.134Z,4.47
2023-01-05T12:19:16.881Z,5.00
2023-01-05T12:22:12.565Z,4.80
2023-01-05T12:24:56.732Z,4.20
2023-01-05T12:27:35.090Z,3.92
2023-01-05T12:36:15.455Z,4.53
2023-01-05T12:38:48.935Z,4.32
2023-01-05T12:41:19.204Z,4.07
2023-01-05T12:44:17.577Z,3.47
2023-01-05T12:47:03.375Z,3.20
2023-01-05T12:49:38.607Z,3.67
2023-01-05T12:52:15.972Z,3.60
2023-01-05T12:54:56.411Z,3.60
2023-01-05T12:57:32.393Z,3.15
2023-01-05T13:00:01.576Z,3.55
2023-01-05T13:02:35.131Z,3.47
2023-01-05T13:05:22.756Z,3.15
2023-01-05T13:08:04.880Z,3.13
2023-01-05T13:10:52.499Z,2.78
2023-01-05T13:13:38.696Z,2.63
2023-01-05T13:16:06.357Z,2.80
2023-01-05T13:18:32.854Z,2.75
2023-01-05T13:21:06.875Z,2.63
2023-01-05T13:23:44.500Z,2.88
2023-01-05T13:26:11.837Z,2.85
2023-01-05T13:28:38.298Z,2.30
2023-01-05T13:31:12.934Z,2.40
2023-01-05T13:33:59.264Z,2.30
2023-01-05T13:36:46.423Z,2.47
2023-01-05T13:39:29.773Z,2.63
2023-01-05T13:42:09.780Z,2.38
2023-01-05T13:45:04.497Z,2.22
2023-01-05T13:51:07.925Z,2.30
2023-01-05T13:53:36.555Z,1.95
2023-01-05T13:56:06.127Z,2.13
2023-01-05T13:58:32.500Z,2.40
2023-01-05T14:00:58.975Z,2.25
2023-01-05T14:03:29.582Z,2.28
2023-01-05T14:05:57.634Z,2.17
2023-01-05T14:08:34.623Z,2.45
2023-01-05T14:11:15.748Z,2.15
2023-01-05T14:13:52.132Z,2.05
2023-01-05T14:16:43.663Z,2.22
2023-01-05T14:19:18.869Z,1.98
2023-01-05T14:21:53.745Z,2.20
2023-01-05T14:27:12.641Z,2.35
2023-01-05T14:29:45.226Z,1.80
2023-01-05T14:32:26.076Z,1.85
2023-01-05T14:37:42.787Z,2.00
2023-01-05T14:40:33.292Z,2.28
2023-01-05T14:43:00.720Z,1.77
2023-01-05T14:45:29.020Z,2.33
2023-01-05T14:47:56.767Z,1.80
2023-01-05T14:50:27.550Z,2.17
2023-01-05T14:52:55.342Z,1.88
2023-01-05T14:55:38.689Z,1.95
2023-01-05T14:58:35.527Z,1.85
2023-01-05T15:01:17.847Z,1.73
2023-01-05T15:04:11.348Z,2.22
2023-01-05T15:06:49.381Z,1.45
2023-01-05T15:09:34.409Z,2.00
2023-01-05T15:12:06.821Z,2.33
2023-01-05T15:14:39.922Z,1.90
2023-01-05T15:17:34.482Z,2.08
2023-01-05T15:20:23.670Z,1.95
2023-01-05T15:23:44.394Z,2.22
2023-01-05T15:26:28.423Z,1.83
2023-01-05T15:29:15.496Z,1.73
2023-01-05T15:31:52.343Z,2.13
2023-01-05T15:34:23.601Z,1.65
2023-01-05T15:37:01.308Z,1.80
2023-01-05T15:39:32.798Z,1.98
2023-01-05T15:42:06.407Z,1.92
2023-01-05T15:44:36.292Z,1.85
2023-01-05T15:47:02.851Z,2.03
2023-01-05T15:49:30.266Z,1.73
2023-01-05T15:51:56.803Z,1.58
2023-01-05T15:54:25.612Z,1.67
2023-01-05T15:56:52.150Z,1.77
2023-01-05T15:59:23.255Z,1.50
2023-01-05T16:01:49.715Z,1.92
2023-01-05T16:04:16.211Z,2.40
2023-01-05T16:06:46.599Z,3.10
2023-01-05T16:09:34.036Z,3.50
2023-01-05T16:12:23.179Z,4.60
2023-01-05T16:14:57.694Z,7.75
2023-01-05T16:17:26.220Z,8.23
2023-01-05T16:19:55.989Z,12.27
2023-01-05T16:22:31.423Z,16.48
2023-01-05T16:24:59.531Z,17.05
2023-01-05T16:27:26.056Z,16.98
2023-01-05T16:29:52.555Z,39.33
2023-01-05T16:32:37.233Z,38.28
2023-01-05T16:35:40.348Z,43.40
2023-01-05T16:38:12.867Z,40.20
2023-01-05T16:40:48.200Z,37.58
2023-01-05T16:43:21.074Z,33.97
2023-01-05T16:45:47.644Z,33.63
2023-01-05T16:48:46.811Z,30.05
2023-01-05T16:51:22.717Z,29.88
2023-01-05T16:53:54.229Z,28.02
2023-01-05T16:56:22.525Z,27.15
2023-01-05T16:58:49.015Z,24.85
2023-01-05T17:01:35.628Z,25.45
2023-01-05T17:04:12.162Z,23.95
2023-01-05T17:06:38.679Z,23.98
2023-01-05T17:09:09.251Z,22.77
2023-01-05T17:11:36.613Z,22.13
2023-01-05T17:14:03.752Z,22.58
2023-01-05T17:16:30.468Z,21.83
2023-01-05T17:18:59.359Z,20.83
2023-01-05T17:21:28.934Z,21.98
2023-01-05T17:23:59.332Z,20.70
2023-01-05T17:26:28.302Z,20.73
2023-01-05T17:28:59.026Z,19.65
2023-01-05T17:31:25.486Z,19.33
2023-01-05T17:33:51.949Z,17.98
2023-01-05T17:36:18.705Z,17.70
2023-01-05T17:38:46.572Z,16.38
2023-01-05T17:41:15.915Z,15.93
2023-01-05T17:43:43.421Z,15.15
2023-01-05T17:46:11.086Z,16.17
2023-01-05T17:48:38.453Z,15.00
2023-01-05T17:51:05.072Z,15.98
2023-01-05T17:53:31.599Z,15.57
2023-01-05T17:55:58.052Z,14.82
2023-01-05T17:58:26.542Z,14.68
2023-01-05T18:00:53.863Z,14.05
2023-01-05T18:03:22.465Z,13.82
2023-01-05T18:05:51.257Z,13.15
2023-01-05T18:08:18.669Z,13.43
2023-01-05T18:10:45.280Z,12.70
2023-01-05T18:13:11.908Z,13.00
2023-01-05T18:15:44.899Z,12.88
2023-01-05T18:18:11.582Z,14.20
2023-01-05T18:20:39.911Z,13.20
2023-01-05T18:25:38.881Z,12.95
2023-01-05T18:28:05.670Z,12.13
2023-01-05T18:30:32.248Z,11.43
2023-01-05T18:32:58.706Z,11.20
2023-01-05T18:35:25.231Z,11.55
2023-01-05T18:37:51.727Z,11.70
2023-01-05T18:40:18.249Z,11.27
2023-01-05T18:42:44.730Z,11.57
2023-01-05T18:45:18.882Z,11.30
2023-01-05T18:47:46.562Z,12.40
2023-01-05T18:50:13.090Z,12.50
2023-01-05T18:52:39.912Z,15.57
2023-01-05T18:55:06.461Z,21.20
2023-01-05T18:57:33.255Z,48.58
2023-01-05T18:59:59.984Z,62.88
2023-01-05T19:02:27.361Z,71.80
2023-01-05T19:04:55.840Z,67.22
2023-01-05T19:07:22.405Z,63.60
2023-01-05T19:09:49.123Z,61.22
2023-01-05T19:12:15.612Z,59.38
2023-01-05T19:14:42.077Z,54.35
2023-01-05T19:17:08.578Z,53.55
2023-01-05T19:19:35.043Z,52.08
2023-01-05T19:22:01.609Z,49.50
2023-01-05T19:24:28.088Z,47.53
2023-01-05T19:26:54.725Z,48.53
2023-01-05T19:29:21.235Z,48.03
2023-01-05T19:31:49.086Z,44.95
2023-01-05T19:34:18.616Z,45.33
2023-01-05T19:36:46.102Z,42.97
2023-01-05T19:39:15.027Z,42.05
2023-01-05T19:41:43.146Z,41.83
2023-01-05T19:44:14.680Z,40.88
2023-01-05T19:46:41.218Z,39.47
2023-01-05T19:49:09.286Z,40.03
2023-01-05T19:51:35.750Z,38.63
2023-01-05T19:54:03.726Z,38.25
2023-01-05T19:56:33.942Z,36.15
2023-01-05T19:59:05.054Z,35.45
2023-01-05T20:01:34.393Z,34.10
2023-01-05T20:04:00.934Z,33.33
2023-01-05T20:06:29.171Z,32.60
2023-01-05T20:08:57.698Z,32.70
2023-01-05T20:11:40.412Z,31.48
2023-01-05T20:14:10.650Z,30.92
2023-01-05T20:16:37.229Z,30.98
2023-01-05T20:19:04.073Z,29.27
2023-01-05T20:21:32.375Z,30.83
2023-01-05T20:24:01.137Z,30.25
2023-01-05T20:26:28.758Z,30.17
2023-01-05T20:29:01.362Z,29.15
2023-01-05T20:31:33.259Z,29.00
2023-01-05T20:34:04.972Z,27.17
2023-01-05T20:36:31.587Z,26.50
2023-01-05T20:38:58.437Z,26.67
2023-01-05T20:41:27.388Z,24.15
2023-01-05T20:43:54.368Z,23.52
2023-01-05T20:46:22.177Z,24.73
2023-01-05T20:48:49.404Z,23.02
2023-01-05T20:51:15.997Z,22.67
2023-01-05T20:53:42.537Z,21.45
2023-01-05T20:56:16.004Z,21.73
2023-01-05T20:58:43.059Z,21.42
2023-01-05T21:01:11.636Z,20.90
2023-01-05T21:03:38.802Z,20.17
2023-01-05T21:06:05.963Z,19.25
2023-01-05T21:08:32.456Z,18.98
2023-01-05T21:10:59.457Z,18.70
2023-01-05T21:13:31.943Z,17.63
2023-01-05T21:16:02.329Z,17.05
2023-01-05T21:18:28.832Z,18.00
2023-01-05T21:20:55.350Z,16.88
2023-01-05T21:23:21.912Z,16.15
2023-01-05T21:26:06.475Z,15.90
2023-01-05T21:28:37.270Z,14.68
2023-01-05T21:31:05.009Z,13.60
2023-01-05T21:33:31.757Z,12.80
2023-01-05T21:35:58.247Z,13.25
2023-01-05T21:38:24.836Z,13.27
2023-01-05T21:40:51.329Z,12.23
2023-01-05T21:43:17.790Z,12.73
2023-01-05T21:45:44.341Z,12.32
2023-01-05T21:48:10.862Z,11.80
2023-01-05T21:50:57.879Z,11.77
2023-01-05T21:53:42.943Z,11.93
2023-01-05T21:56:25.687Z,11.13
2023-01-05T21:58:53.317Z,10.57
2023-01-05T22:01:19.906Z,11.25
2023-01-05T22:03:46.557Z,10.68
2023-01-05T22:06:13.049Z,11.18
2023-01-05T22:08:39.529Z,9.57
2023-01-05T22:11:06.002Z,9.48
2023-01-05T22:13:32.571Z,8.48
2023-01-05T22:15:59.107Z,10.00
2023-01-05T22:18:25.704Z,9.25
2023-01-05T22:20:59.249Z,8.45
2023-01-05T22:23:27.183Z,8.85
2023-01-05T22:26:08.318Z,8.00
2023-01-05T22:28:35.910Z,8.80
2023-01-05T22:31:10.154Z,8.25
2023-01-05T22:33:38.069Z,8.00
2023-01-05T22:36:05.462Z,7.88
2023-01-05T22:38:35.384Z,7.68
2023-01-05T22:41:01.938Z,7.75
2023-01-05T22:43:29.295Z,6.60
2023-01-05T22:46:01.377Z,7.45
2023-01-05T22:48:27.980Z,7.05
2023-01-05T22:50:54.456Z,6.68
2023-01-05T22:53:20.964Z,6.50
2023-01-05T22:55:47.416Z,6.90
2023-01-05T22:58:13.894Z,6.28
2023-01-05T23:00:40.386Z,6.47
2023-01-05T23:03:06.906Z,6.20
2023-01-05T23:05:33.392Z,6.07
2023-01-05T23:07:59.860Z,6.00
2023-01-05T23:10:27.652Z,6.38
2023-01-05T23:12:54.443Z,5.55
2023-01-05T23:15:20.940Z,5.60
2023-01-05T23:17:47.402Z,6.05
2023-01-05T23:20:14.047Z,6.07
2023-01-05T23:22:40.698Z,7.13
2023-01-05T23:25:07.442Z,7.60
2023-01-05T23:27:33.925Z,7.10
2023-01-05T23:30:00.395Z,7.03
2023-01-05T23:32:26.869Z,6.53
2023-01-05T23:34:53.342Z,6.05
2023-01-05T23:37:19.807Z,6.30
2023-01-05T23:39:46.285Z,5.88
2023-01-05T23:42:32.705Z,5.95
2023-01-05T23:44:59.488Z,4.95
2023-01-05T23:47:25.950Z,5.60
2023-01-05T23:49:52.446Z,29.23
2023-01-05T23:52:18.936Z,5.07
2023-01-05T23:54:45.418Z,5.82
2023-01-05T23:57:11.886Z,5.97
2023-01-05T23:59:38.412Z,5.65
